Time;durP1;ratioP1;P1;durP2;ratioP2;P2;SDS_P1;SDS_P2;PMS_P1;PMS_P2;Temp;Humidity;BMP_temperature;BMP_pressure;BME280_temperature;BME280_humidity;BME280_pressure;Samples;Min_cycle;Max_cycle;Signal;HPM_P1;HPM_P2
2021/12/24 00:02:04;;;;;;;1.58;0.82;;;25.20;90.50;;;;;;5073156;28;20383;-58
2021/12/24 00:04:31;;;;;;;5.60;1.65;;;25.30;90.50;;;;;;5074994;28;20471;-53
2021/12/24 00:06:58;;;;;;;2.50;1.10;;;25.20;90.40;;;;;;5074813;28;20041;-56
2021/12/24 00:09:31;;;;;;;1.73;0.85;;;25.30;90.60;;;;;;5075075;28;20128;-53
2021/12/24 00:12:02;;;;;;;1.70;0.93;;;25.30;90.60;;;;;;5074570;28;20336;-55
2021/12/24 00:14:31;;;;;;;3.05;1.33;;;25.30;90.50;;;;;;5074795;28;20365;-58
2021/12/24 00:17:03;;;;;;;2.97;1.35;;;25.30;90.50;;;;;;5073931;28;20126;-51
2021/12/24 00:19:42;;;;;;;4.45;1.02;;;25.30;90.60;;;;;;5074351;28;20096;-59
2021/12/24 00:35:45;;;;;;;2.08;0.90;;;25.20;90.50;;;;;;5074785;28;20090;-59
2021/12/24 00:38:13;;;;;;;2.28;1.10;;;25.20;90.50;;;;;;5073838;28;20033;-56
2021/12/24 00:40:43;;;;;;;2.25;1.20;;;25.20;90.60;;;;;;5074374;28;20425;-51
2021/12/24 00:43:12;;;;;;;1.25;0.98;;;25.20;90.60;;;;;;5074148;28;20050;-54
2021/12/24 00:45:42;;;;;;;2.13;0.90;;;25.20;90.70;;;;;;5073508;28;20027;-57
2021/12/24 00:48:14;;;;;;;1.90;0.80;;;25.20;90.80;;;;;;5073759;28;20372;-53
2021/12/24 00:56:13;;;;;;;2.03;0.80;;;25.10;91.00;;;;;;5072714;28;20025;-57
2021/12/24 00:58:42;;;;;;;3.25;1.30;;;25.10;90.90;;;;;;5073614;28;20448;-58
2021/12/24 01:01:13;;;;;;;2.30;1.10;;;25.20;91.00;;;;;;5072440;28;20023;-58
2021/12/24 01:03:41;;;;;;;3.50;1.50;;;25.20;91.00;;;;;;5073627;28;20056;-52
2021/12/24 01:06:09;;;;;;;1.90;1.00;;;25.20;90.90;;;;;;5073465;28;20040;-57
2021/12/24 01:08:36;;;;;;;2.45;1.05;;;25.20;90.80;;;;;;5073427;28;20056;-58
2021/12/24 01:11:06;;;;;;;2.67;1.13;;;25.20;90.90;;;;;;5073230;28;20059;-47
2021/12/24 01:13:34;;;;;;;1.90;0.88;;;25.20;91.00;;;;;;5071892;28;20035;-54
2021/12/24 01:16:07;;;;;;;1.73;0.65;;;25.20;91.20;;;;;;5073096;28;20033;-50
2021/12/24 01:18:46;;;;;;;3.90;1.40;;;25.20;91.00;;;;;;5073428;28;20031;-53
2021/12/24 01:24:03;;;;;;;2.78;1.30;;;25.20;91.00;;;;;;5073427;28;20107;-56
2021/12/24 01:42:46;;;;;;;1.35;1.00;;;25.50;90.60;;;;;;5073034;28;20413;-57
2021/12/24 01:45:16;;;;;;;3.10;1.13;;;25.60;90.50;;;;;;5055544;28;20078;-59
2021/12/24 01:47:44;;;;;;;3.17;1.33;;;25.60;90.40;;;;;;5072782;28;20021;-54
2021/12/24 01:50:12;;;;;;;3.28;1.30;;;25.70;90.30;;;;;;5072500;28;20314;-53
2021/12/24 01:52:40;;;;;;;2.15;1.33;;;25.80;90.20;;;;;;5072788;28;20433;-60
2021/12/24 01:55:12;;;;;;;1.73;0.70;;;25.80;90.20;;;;;;5071003;28;20048;-53
2021/12/24 01:57:42;;;;;;;2.08;0.93;;;25.90;90.00;;;;;;5072626;28;20067;-60
2021/12/24 02:00:12;;;;;;;5.13;1.45;;;25.90;90.00;;;;;;5072546;28;20025;-47
2021/12/24 02:02:40;;;;;;;2.35;0.70;;;26.00;89.70;;;;;;5072915;28;20035;-56
2021/12/24 02:05:08;;;;;;;2.40;1.23;;;26.00;89.50;;;;;;5072501;28;20035;-59
2021/12/24 02:07:36;;;;;;;2.75;1.20;;;26.10;89.10;;;;;;5072665;28;20020;-56
2021/12/24 02:10:08;;;;;;;2.13;0.95;;;26.20;88.70;;;;;;5070770;28;20046;-53
2021/12/24 02:12:35;;;;;;;;;;;26.20;89.00;;;;;;5072856;28;20104;-58
2021/12/24 02:15:08;;;;;;;3.92;1.73;;;26.30;88.60;;;;;;5072558;28;19911;-57
2021/12/24 02:28:39;;;;;;;1.77;1.17;;;26.50;87.70;;;;;;5072735;28;20047;-55
2021/12/24 02:31:13;;;;;;;1.75;1.05;;;26.50;87.70;;;;;;5072456;28;20032;-55
2021/12/24 02:33:40;;;;;;;2.08;1.00;;;26.60;87.40;;;;;;5072147;28;20024;-57
2021/12/24 02:36:09;;;;;;;2.70;1.10;;;26.60;87.20;;;;;;5072206;28;20379;-54
2021/12/24 02:38:38;;;;;;;2.13;1.10;;;26.60;87.10;;;;;;5072425;28;20378;-56
2021/12/24 02:41:07;;;;;;;3.17;1.02;;;26.60;87.30;;;;;;5072610;28;20024;-60
2021/12/24 02:43:36;;;;;;;1.52;0.82;;;26.70;87.00;;;;;;5072590;28;20463;-56
2021/12/24 02:46:11;;;;;;;2.80;1.25;;;26.70;87.30;;;;;;5072236;28;20186;-56
2021/12/24 02:54:09;;;;;;;2.90;1.30;;;26.80;86.30;;;;;;5071794;28;20459;-53
2021/12/24 02:56:39;;;;;;;2.78;1.25;;;26.80;85.40;;;;;;5071830;28;20412;-60
2021/12/24 02:59:12;;;;;;;3.97;1.50;;;26.90;86.10;;;;;;5072208;28;20089;-60
2021/12/24 03:01:42;;;;;;;2.75;1.13;;;27.00;85.40;;;;;;5072547;28;20112;-57
2021/12/24 03:04:11;;;;;;;4.47;1.67;;;26.90;86.60;;;;;;5071959;28;20094;-52
2021/12/24 03:06:45;;;;;;;2.17;0.90;;;27.00;85.20;;;;;;5071610;28;20056;-52
2021/12/24 03:09:16;;;;;;;2.55;1.23;;;27.00;85.50;;;;;;5076212;28;20223;-50
2021/12/24 03:11:45;;;;;;;2.08;1.10;;;27.10;85.00;;;;;;5075896;28;20475;-58
2021/12/24 03:14:15;;;;;;;2.97;1.10;;;27.10;84.80;;;;;;5075737;28;20017;-58
2021/12/24 03:16:49;;;;;;;2.30;1.10;;;27.20;85.00;;;;;;5075610;28;20107;-58
2021/12/24 03:19:17;;;;;;;3.45;1.20;;;27.20;86.00;;;;;;5074837;28;20024;-51
2021/12/24 03:21:53;;;;;;;2.08;1.10;;;27.20;85.40;;;;;;5075954;28;20348;-51
2021/12/24 03:26:49;;;;;;;2.17;0.95;;;27.20;85.10;;;;;;5074345;28;20036;-58
2021/12/24 03:29:19;;;;;;;1.55;1.00;;;27.30;84.30;;;;;;5075687;28;20099;-59
2021/12/24 03:31:47;;;;;;;5.00;1.50;;;27.30;85.00;;;;;;5075655;28;20032;-56
2021/12/24 03:34:19;;;;;;;3.13;1.00;;;27.40;84.70;;;;;;5075344;28;20027;-55
2021/12/24 03:36:46;;;;;;;3.20;1.20;;;27.40;85.10;;;;;;5075699;28;20047;-56
2021/12/24 03:39:15;;;;;;;2.42;1.00;;;27.40;85.20;;;;;;5075622;28;20598;-54
2021/12/24 03:41:43;;;;;;;5.50;1.63;;;27.40;84.60;;;;;;5075791;28;20487;-56
2021/12/24 03:44:13;;;;;;;3.10;1.48;;;27.40;84.90;;;;;;5075435;28;20502;-58
2021/12/24 03:46:58;;;;;;;2.35;1.00;;;27.50;83.90;;;;;;5075225;28;20037;-53
2021/12/24 03:49:36;;;;;;;1.75;1.02;;;27.50;84.60;;;;;;5075073;28;20379;-56
2021/12/24 03:52:22;;;;;;;1.80;1.08;;;27.50;84.90;;;;;;5075131;28;20379;-55
2021/12/24 03:54:58;;;;;;;3.35;1.67;;;27.50;84.30;;;;;;5074875;28;20044;-54
2021/12/24 03:57:31;;;;;;;1.65;1.00;;;27.60;84.30;;;;;;5074985;28;20028;-55
2021/12/24 04:00:05;;;;;;;3.22;1.08;;;27.50;84.60;;;;;;5074695;28;20024;-56
2021/12/24 04:02:33;;;;;;;1.95;0.98;;;27.50;84.70;;;;;;5074785;28;20031;-55
2021/12/24 04:05:00;;;;;;;2.67;1.10;;;27.50;84.80;;;;;;5073486;28;20027;-55
2021/12/24 04:07:28;;;;;;;3.15;1.33;;;27.60;84.30;;;;;;5074833;28;20036;-57
2021/12/24 04:10:04;;;;;;;2.60;0.98;;;27.60;84.50;;;;;;5073275;28;20063;-57
2021/12/24 04:12:34;;;;;;;2.40;0.88;;;27.60;85.00;;;;;;5074813;28;20128;-56
2021/12/24 04:15:02;;;;;;;2.08;0.98;;;27.60;85.30;;;;;;5073096;28;20351;-56
2021/12/24 04:17:36;;;;;;;1.25;0.98;;;27.50;85.30;;;;;;5074584;28;20047;-56
2021/12/24 04:25:26;;;;;;;3.00;1.27;;;27.50;85.10;;;;;;5074614;28;20045;-54
2021/12/24 04:27:57;;;;;;;1.30;0.85;;;27.50;85.00;;;;;;5074202;28;20055;-53
2021/12/24 04:30:30;;;;;;;2.78;1.23;;;27.50;84.90;;;;;;5074540;28;20025;-53
2021/12/24 04:33:08;;;;;;;2.85;1.40;;;27.40;85.60;;;;;;5074380;28;20024;-55
2021/12/24 04:35:43;;;;;;;1.52;0.88;;;27.50;85.50;;;;;;5074296;28;20110;-53
2021/12/24 05:03:26;;;;;;;3.08;1.33;;;27.40;86.20;;;;;;5073675;28;20174;-58
2021/12/24 05:06:07;;;;;;;3.58;1.25;;;27.40;86.30;;;;;;5072159;28;20040;-53
2021/12/24 05:11:21;;;;;;;1.85;0.85;;;27.30;86.90;;;;;;5073697;28;20062;-55
2021/12/24 05:13:50;;;;;;;2.08;1.20;;;27.30;86.50;;;;;;5073439;28;20029;-59
2021/12/24 05:16:24;;;;;;;1.42;0.90;;;27.30;86.90;;;;;;5073658;28;20463;-55
2021/12/24 05:21:36;;;;;;;2.55;1.23;;;27.30;87.00;;;;;;5073221;28;20107;-59
2021/12/24 05:24:10;;;;;;;2.40;1.15;;;27.30;87.70;;;;;;5073001;28;20486;-56
2021/12/24 05:26:38;;;;;;;1.65;1.25;;;27.30;87.60;;;;;;5073229;28;20352;-49
2021/12/24 05:29:06;;;;;;;3.20;1.02;;;27.30;87.40;;;;;;5073185;28;20044;-53
2021/12/24 05:31:34;;;;;;;4.25;1.73;;;27.30;87.50;;;;;;5073114;28;20387;-57
2021/12/24 05:34:05;;;;;;;4.68;1.58;;;27.30;86.70;;;;;;5073210;28;20017;-56
2021/12/24 05:36:32;;;;;;;1.60;1.00;;;27.30;87.20;;;;;;5073136;28;20032;-56
2021/12/24 05:39:00;;;;;;;2.08;1.05;;;27.30;87.30;;;;;;5073034;28;20413;-60
2021/12/24 05:41:27;;;;;;;7.03;2.05;;;27.30;87.80;;;;;;5072648;28;20098;-57
2021/12/24 05:43:55;;;;;;;3.28;1.33;;;27.30;86.90;;;;;;5073092;28;20021;-55
2021/12/24 05:46:23;;;;;;;3.55;1.40;;;27.30;87.40;;;;;;5072930;28;20069;-59
2021/12/24 05:48:50;;;;;;;4.18;1.70;;;27.30;87.30;;;;;;5073169;28;20077;-58
2021/12/24 05:51:18;;;;;;;3.97;1.50;;;27.30;86.80;;;;;;5073160;28;20437;-55
2021/12/24 05:53:45;;;;;;;4.72;1.42;;;27.20;87.50;;;;;;5072919;28;20403;-59
2021/12/24 05:56:13;;;;;;;2.60;1.13;;;27.20;87.30;;;;;;5072719;28;20036;-56
2021/12/24 05:58:41;;;;;;;2.70;1.17;;;27.20;87.70;;;;;;5071303;28;20423;-49
2021/12/24 06:01:08;;;;;;;1.67;1.20;;;27.20;88.00;;;;;;5071313;28;20032;-59
2021/12/24 06:03:36;;;;;;;2.65;1.00;;;27.20;88.00;;;;;;5073233;28;20051;-56
2021/12/24 06:06:03;;;;;;;1.15;0.98;;;27.20;88.20;;;;;;5072701;28;20032;-58
2021/12/24 06:08:30;;;;;;;2.67;1.40;;;27.20;88.20;;;;;;5072926;28;20028;-57
2021/12/24 06:10:58;;;;;;;2.63;1.48;;;27.20;87.90;;;;;;5072602;28;20079;-57
2021/12/24 06:13:27;;;;;;;4.53;1.83;;;27.20;87.90;;;;;;5072641;28;20100;-55
2021/12/24 06:15:55;;;;;;;2.25;0.98;;;27.20;87.90;;;;;;5071918;28;20040;-57
2021/12/24 06:18:25;;;;;;;2.65;1.45;;;27.10;88.40;;;;;;5072656;28;20486;-52
2021/12/24 06:20:54;;;;;;;2.03;1.23;;;27.10;88.20;;;;;;5072793;28;20028;-52
2021/12/24 06:23:24;;;;;;;2.17;0.98;;;27.10;88.50;;;;;;5072615;28;20417;-60
2021/12/24 06:25:55;;;;;;;4.45;1.65;;;27.10;88.30;;;;;;5072835;28;20036;-52
2021/12/24 06:28:23;;;;;;;3.83;1.73;;;27.10;87.70;;;;;;5072761;28;20031;-58
2021/12/24 06:30:51;;;;;;;4.15;1.92;;;27.00;87.90;;;;;;5072716;28;20036;-54
2021/12/24 06:33:19;;;;;;;1.42;0.90;;;27.00;88.10;;;;;;5072760;28;20021;-60
2021/12/24 06:35:52;;;;;;;3.15;0.73;;;27.00;89.00;;;;;;5072637;28;20048;-59
2021/12/24 06:38:21;;;;;;;2.65;1.23;;;26.90;89.20;;;;;;5071365;28;20025;-58
2021/12/24 06:40:58;;;;;;;;;;;;;;;;;;;;;
2021/12/24 06:43:28;;;;;;;2.55;1.20;;;26.90;89.30;;;;;;5076022;28;20023;-52
2021/12/24 06:45:57;;;;;;;2.72;1.30;;;26.90;89.20;;;;;;5075715;28;20028;-59
2021/12/24 06:48:24;;;;;;;3.40;1.73;;;26.90;89.00;;;;;;5076261;28;20024;-55
2021/12/24 06:50:52;;;;;;;2.67;1.25;;;26.90;89.30;;;;;;5076804;28;20046;-56
2021/12/24 06:53:19;;;;;;;1.85;1.25;;;26.90;89.40;;;;;;5076166;28;20036;-57
2021/12/24 06:55:46;;;;;;;1.30;0.90;;;26.80;89.70;;;;;;5076438;28;20040;-61
2021/12/24 06:58:14;;;;;;;5.40;1.65;;;26.80;89.90;;;;;;5076670;28;20455;-58
2021/12/24 07:00:41;;;;;;;3.13;0.77;;;26.80;89.80;;;;;;5076349;28;20112;-58
2021/12/24 07:03:09;;;;;;;3.13;1.45;;;26.70;89.90;;;;;;5076048;28;20074;-57
2021/12/24 07:05:36;;;;;;;2.63;1.38;;;26.70;89.90;;;;;;5076208;28;20032;-56
2021/12/24 07:08:13;;;;;;;2.78;1.40;;;26.70;90.10;;;;;;5075600;28;20506;-57
2021/12/24 07:10:40;;;;;;;3.35;1.38;;;26.70;90.00;;;;;;5075885;28;20025;-54
2021/12/24 07:13:07;;;;;;;3.58;1.45;;;26.70;90.20;;;;;;5076301;28;20120;-56
2021/12/24 07:15:35;;;;;;;2.60;1.02;;;26.60;90.10;;;;;;5075794;28;20032;-58
2021/12/24 07:18:03;;;;;;;1.77;1.00;;;26.70;90.30;;;;;;5075943;28;20203;-59
2021/12/24 07:20:30;;;;;;;3.65;1.50;;;26.60;90.30;;;;;;5075969;28;20028;-57
2021/12/24 07:22:57;;;;;;;4.10;1.58;;;26.60;90.30;;;;;;5075546;28;20025;-52
2021/12/24 07:25:25;;;;;;;2.42;1.35;;;26.60;90.30;;;;;;5075655;28;20029;-55
2021/12/24 07:27:52;;;;;;;4.90;1.67;;;26.60;90.30;;;;;;5074006;28;20028;-56
2021/12/24 07:30:21;;;;;;;3.08;1.50;;;26.50;90.30;;;;;;5075717;28;20103;-61
2021/12/24 07:32:50;;;;;;;3.92;1.48;;;26.50;90.30;;;;;;5075554;28;20029;-59
2021/12/24 07:35:18;;;;;;;3.33;1.40;;;26.50;90.40;;;;;;5075643;28;20032;-59
2021/12/24 07:37:46;;;;;;;3.72;1.23;;;26.50;90.40;;;;;;5075744;28;20107;-51
2021/12/24 07:40:15;;;;;;;2.05;1.30;;;26.40;90.50;;;;;;5075148;28;20024;-55
2021/12/24 07:42:43;;;;;;;2.85;1.23;;;26.40;90.40;;;;;;5075325;28;20020;-59
2021/12/24 07:45:15;;;;;;;2.80;1.35;;;26.40;90.50;;;;;;5075303;28;20052;-57
2021/12/24 07:47:43;;;;;;;;;;;26.40;90.50;;;;;;5075761;28;20086;-60
2021/12/24 07:52:58;;;;;;;4.80;1.90;;;26.30;90.60;;;;;;5074748;28;20029;-59
2021/12/24 07:55:25;;;;;;;3.20;1.30;;;26.30;90.60;;;;;;5074631;28;20091;-61
2021/12/24 07:57:53;;;;;;;4.28;1.90;;;26.30;90.70;;;;;;5075113;28;20490;-48
2021/12/24 08:00:26;;;;;;;4.30;1.55;;;26.30;90.60;;;;;;5074608;28;20060;-54
2021/12/24 08:02:55;;;;;;;3.67;1.58;;;26.30;90.80;;;;;;5075083;28;20367;-52
2021/12/24 08:05:25;;;;;;;3.97;1.50;;;26.30;90.80;;;;;;5075028;28;20108;-59
2021/12/24 08:07:54;;;;;;;3.47;1.75;;;26.20;90.80;;;;;;5074602;28;20028;-53
2021/12/24 08:10:27;;;;;;;3.83;1.52;;;26.20;90.80;;;;;;5075075;28;20036;-60
2021/12/24 08:12:54;;;;;;;3.53;1.42;;;26.20;90.90;;;;;;5075224;28;20040;-59
2021/12/24 08:15:22;;;;;;;4.15;1.77;;;26.20;90.90;;;;;;5075336;28;20115;-59
2021/12/24 08:17:49;;;;;;;3.03;1.52;;;26.20;90.90;;;;;;5075138;28;20021;-60
2021/12/24 08:20:22;;;;;;;4.25;1.60;;;26.20;91.00;;;;;;5074662;28;20037;-54
2021/12/24 08:22:50;;;;;;;4.43;1.65;;;26.10;90.90;;;;;;5074335;28;20027;-55
2021/12/24 08:25:19;;;;;;;3.13;1.65;;;26.20;91.00;;;;;;5074858;28;20024;-57
2021/12/24 08:27:46;;;;;;;2.42;1.30;;;26.10;91.00;;;;;;5075002;28;20425;-59
2021/12/24 08:30:14;;;;;;;2.85;1.40;;;26.10;91.00;;;;;;5074429;28;20108;-56
2021/12/24 08:32:42;;;;;;;2.83;1.48;;;26.10;91.10;;;;;;5074977;28;20404;-56
2021/12/24 08:35:13;;;;;;;3.83;1.55;;;26.10;91.10;;;;;;5074482;28;20437;-58
2021/12/24 08:37:41;;;;;;;3.27;1.50;;;26.10;91.10;;;;;;5074602;28;20483;-58
2021/12/24 08:40:11;;;;;;;1.90;1.38;;;26.10;91.10;;;;;;5074159;28;20332;-57
2021/12/24 08:42:38;;;;;;;2.17;1.30;;;26.10;91.10;;;;;;5074503;28;20025;-60
2021/12/24 08:45:07;;;;;;;2.33;1.40;;;26.00;91.10;;;;;;5074271;28;20048;-55
2021/12/24 08:47:35;;;;;;;2.65;1.20;;;26.00;91.10;;;;;;5074500;28;20040;-58
2021/12/24 08:50:05;;;;;;;2.55;1.50;;;26.00;91.10;;;;;;5073908;28;20016;-57
2021/12/24 08:52:32;;;;;;;3.05;1.45;;;26.00;91.10;;;;;;5074306;28;20033;-55
2021/12/24 08:54:59;;;;;;;2.50;1.40;;;26.00;91.10;;;;;;5074395;28;20040;-58
2021/12/24 08:57:27;;;;;;;3.13;1.55;;;26.00;91.20;;;;;;5073033;28;20023;-56
2021/12/24 08:59:54;;;;;;;4.45;1.00;;;25.90;91.10;;;;;;5073643;28;20111;-59
2021/12/24 09:02:22;;;;;;;2.47;1.35;;;25.90;91.20;;;;;;5073063;28;20044;-54
2021/12/24 09:04:49;;;;;;;2.97;1.38;;;25.90;91.30;;;;;;5072361;28;20024;-54
2021/12/24 09:07:17;;;;;;;2.58;1.30;;;25.90;91.30;;;;;;5074055;28;20102;-55
2021/12/24 09:09:44;;;;;;;1.42;1.00;;;25.90;91.30;;;;;;5074151;28;20048;-56
2021/12/24 09:12:13;;;;;;;2.78;1.58;;;25.90;91.30;;;;;;5073718;28;20024;-59
2021/12/24 09:14:40;;;;;;;2.47;1.10;;;25.90;91.30;;;;;;5074056;28;20029;-57
2021/12/24 09:17:08;;;;;;;3.05;1.58;;;25.90;91.30;;;;;;5072733;28;20031;-58
2021/12/24 09:19:38;;;;;;;3.53;1.60;;;25.80;91.40;;;;;;5072531;28;20024;-56
2021/12/24 09:22:06;;;;;;;2.85;1.67;;;25.80;91.40;;;;;;5073055;28;20063;-60
2021/12/24 09:24:33;;;;;;;2.80;1.42;;;25.80;91.50;;;;;;5073707;28;20025;-58
2021/12/24 09:27:01;;;;;;;3.42;1.70;;;25.80;91.50;;;;;;5073421;28;20035;-56
2021/12/24 09:29:28;;;;;;;4.40;1.48;;;25.80;91.50;;;;;;5073636;28;20040;-59
2021/12/24 09:31:56;;;;;;;2.33;1.40;;;25.80;91.50;;;;;;5073328;28;20045;-58
2021/12/24 09:34:23;;;;;;;4.00;1.40;;;25.80;91.50;;;;;;5073512;28;20414;-61
2021/12/24 09:36:51;;;;;;;3.45;1.50;;;25.70;91.50;;;;;;5073339;28;20498;-51
2021/12/24 09:39:20;;;;;;;5.55;1.83;;;25.70;91.50;;;;;;5073509;28;20036;-56
2021/12/24 09:41:47;;;;;;;2.70;1.30;;;25.70;91.60;;;;;;5073576;28;20042;-56
2021/12/24 09:44:15;;;;;;;4.72;2.20;;;25.70;91.60;;;;;;5073371;28;20039;-59
2021/12/24 09:46:43;;;;;;;2.72;1.45;;;25.60;91.60;;;;;;5073382;28;20348;-61
2021/12/24 09:49:12;;;;;;;2.92;1.52;;;25.60;91.60;;;;;;5073858;28;20033;-59
2021/12/24 09:51:43;;;;;;;3.70;1.58;;;25.60;91.70;;;;;;5073269;28;20165;-58
2021/12/24 09:54:20;;;;;;;1.60;1.30;;;25.60;91.70;;;;;;5071948;28;20044;-60
2021/12/24 09:56:48;;;;;;;3.78;1.80;;;25.50;91.60;;;;;;5073057;28;20512;-56
2021/12/24 09:59:15;;;;;;;2.53;1.75;;;25.50;91.70;;;;;;5072304;28;20040;-56
2021/12/24 10:01:50;;;;;;;5.00;1.48;;;25.50;91.70;;;;;;5073413;28;20111;-56
2021/12/24 10:04:20;;;;;;;4.15;2.00;;;25.50;91.80;;;;;;5072125;28;20466;-58
2021/12/24 10:07:04;;;;;;;4.15;1.83;;;25.50;91.90;;;;;;5073065;28;20041;-60
2021/12/24 10:09:34;;;;;;;3.00;1.58;;;25.50;91.90;;;;;;5073362;28;20117;-55
2021/12/24 10:12:08;;;;;;;4.15;1.77;;;25.50;92.00;;;;;;5073135;28;20017;-59
2021/12/24 10:14:39;;;;;;;3.55;1.55;;;25.50;92.00;;;;;;5073432;28;20028;-58
2021/12/24 10:17:19;;;;;;;4.25;1.77;;;25.40;92.10;;;;;;5072334;28;20071;-59
2021/12/24 10:19:54;;;;;;;3.92;1.48;;;25.40;92.00;;;;;;5073217;28;20095;-55
2021/12/24 10:22:23;;;;;;;4.30;1.80;;;25.40;92.10;;;;;;5072839;28;20031;-55
2021/12/24 10:25:05;;;;;;;3.60;1.30;;;25.40;92.10;;;;;;5073489;28;20467;-58
2021/12/24 10:27:34;;;;;;;6.32;1.50;;;25.30;92.10;;;;;;5073135;28;20044;-54
2021/12/24 10:30:32;;;;;;;3.58;1.65;;;25.30;92.20;;;;;;5072469;28;20025;-58
2021/12/24 10:33:13;;;;;;;4.72;1.50;;;25.30;92.40;;;;;;5071702;28;20078;-57
2021/12/24 10:35:41;;;;;;;3.97;2.00;;;25.30;92.20;;;;;;5072804;28;20047;-57
2021/12/24 10:38:12;;;;;;;3.00;1.73;;;25.20;92.20;;;;;;5072885;28;20020;-50
2021/12/24 10:41:05;;;;;;;3.25;1.80;;;25.30;92.30;;;;;;5073050;28;20158;-51
2021/12/24 10:43:36;;;;;;;4.15;2.25;;;25.20;92.20;;;;;;5071723;28;20024;-57
2021/12/24 10:46:24;;;;;;;4.93;1.98;;;25.20;92.20;;;;;;5072868;28;20024;-59
2021/12/24 10:49:16;;;;;;;3.60;1.65;;;25.20;92.30;;;;;;5073054;28;20028;-53
2021/12/24 10:52:01;;;;;;;3.63;1.50;;;25.20;92.30;;;;;;5072884;28;20424;-56
2021/12/24 10:54:28;;;;;;;4.07;1.70;;;25.20;92.30;;;;;;5072646;28;20082;-48
2021/12/24 10:57:18;;;;;;;2.78;1.70;;;25.20;92.30;;;;;;5072678;28;20048;-56
2021/12/24 10:59:50;;;;;;;3.90;1.75;;;25.20;92.30;;;;;;5072812;28;20021;-57
2021/12/24 11:02:19;;;;;;;4.35;1.65;;;25.20;92.30;;;;;;5072960;28;20104;-57
2021/12/24 11:04:47;;;;;;;2.60;1.42;;;25.20;92.30;;;;;;5072589;28;20024;-56
2021/12/24 11:07:37;;;;;;;4.93;1.95;;;25.20;92.30;;;;;;5071342;28;20499;-59
2021/12/24 11:10:27;;;;;;;3.40;1.60;;;25.20;92.30;;;;;;5072446;28;20052;-57
2021/12/24 11:13:07;;;;;;;3.72;1.67;;;25.20;92.30;;;;;;5071455;28;20025;-54
2021/12/24 11:15:38;;;;;;;4.13;1.45;;;25.10;92.30;;;;;;5072487;28;20036;-58
2021/12/24 11:18:15;;;;;;;3.63;1.58;;;25.10;92.30;;;;;;5072364;28;20055;-53
2021/12/24 11:20:44;;;;;;;3.83;2.00;;;25.10;92.20;;;;;;5072356;28;20497;-59
2021/12/24 11:23:17;;;;;;;2.65;1.48;;;25.10;92.20;;;;;;5072557;28;20459;-54
2021/12/24 11:25:54;;;;;;;2.88;1.73;;;25.10;92.20;;;;;;5072324;28;20186;-57
2021/12/24 11:28:25;;;;;;;1.85;1.55;;;25.10;92.20;;;;;;5073923;28;20506;-59
2021/12/24 11:31:16;;;;;;;3.10;1.30;;;25.10;92.20;;;;;;5076141;28;20482;-57
2021/12/24 11:33:46;;;;;;;2.88;1.60;;;25.10;92.20;;;;;;5076232;28;20103;-58
2021/12/24 11:36:18;;;;;;;3.53;1.73;;;25.10;92.20;;;;;;5074372;28;20028;-55
2021/12/24 11:38:49;;;;;;;3.67;1.50;;;25.10;92.20;;;;;;5076151;28;20025;-57
2021/12/24 11:41:18;;;;;;;2.97;1.90;;;25.00;92.20;;;;;;5075998;28;20024;-55
2021/12/24 11:43:50;;;;;;;2.83;1.58;;;25.00;92.20;;;;;;5075774;28;20057;-59
2021/12/24 11:46:20;;;;;;;4.75;1.80;;;25.00;92.20;;;;;;5075841;28;20384;-58
2021/12/24 11:48:49;;;;;;;1.95;1.40;;;25.00;92.30;;;;;;5075753;28;20021;-59
2021/12/24 11:51:20;;;;;;;3.13;1.55;;;25.00;92.20;;;;;;5075420;28;20027;-56
2021/12/24 11:53:50;;;;;;;3.20;1.30;;;25.00;92.30;;;;;;5075638;28;20040;-50
2021/12/24 11:56:20;;;;;;;2.58;1.63;;;25.00;92.20;;;;;;5075660;28;20032;-62
2021/12/24 11:58:53;;;;;;;1.88;1.38;;;25.00;92.30;;;;;;5075437;28;20021;-59
2021/12/24 12:01:25;;;;;;;3.28;1.88;;;25.00;92.30;;;;;;5075539;28;20475;-58
2021/12/24 12:03:57;;;;;;;4.90;1.90;;;25.00;92.20;;;;;;5075157;28;20024;-51
2021/12/24 12:06:25;;;;;;;5.82;1.77;;;25.00;92.30;;;;;;5075132;28;20513;-57
2021/12/24 12:08:58;;;;;;;4.00;2.10;;;25.00;92.20;;;;;;5075419;28;20024;-57
2021/12/24 12:11:26;;;;;;;4.70;1.77;;;25.00;92.30;;;;;;5075068;28;20518;-57
2021/12/24 12:14:23;;;;;;;2.95;1.80;;;25.00;92.30;;;;;;5075285;28;20028;-57
2021/12/24 12:16:56;;;;;;;3.80;1.98;;;25.00;92.30;;;;;;5075143;28;20028;-57
2021/12/24 12:19:43;;;;;;;6.05;2.20;;;24.90;92.20;;;;;;5075166;28;20482;-56
2021/12/24 12:22:24;;;;;;;3.45;1.63;;;24.90;92.30;;;;;;5075056;28;20403;-55
2021/12/24 12:24:57;;;;;;;4.40;1.73;;;25.00;92.30;;;;;;5075081;28;20020;-59
2021/12/24 12:27:44;;;;;;;4.28;1.70;;;25.00;92.20;;;;;;5075092;28;20079;-61
2021/12/24 12:30:26;;;;;;;3.78;1.92;;;25.00;92.20;;;;;;5074945;28;20029;-56
2021/12/24 12:33:20;;;;;;;2.58;1.38;;;24.90;92.20;;;;;;5074822;28;20078;-57
2021/12/24 12:35:51;;;;;;;3.40;1.50;;;24.90;92.20;;;;;;5074747;28;20056;-58
2021/12/24 12:38:26;;;;;;;4.05;1.50;;;24.90;92.20;;;;;;5074791;28;20379;-55
2021/12/24 12:41:13;;;;;;;5.50;1.67;;;24.90;92.20;;;;;;5074069;28;20089;-60
2021/12/24 12:43:41;;;;;;;3.72;1.50;;;24.90;92.20;;;;;;5073670;28;20047;-59
2021/12/24 12:46:39;;;;;;;2.63;1.77;;;24.90;92.20;;;;;;5074240;28;20048;-60
2021/12/24 12:49:09;;;;;;;5.85;2.10;;;24.90;92.30;;;;;;5074448;28;20356;-58
2021/12/24 12:51:55;;;;;;;3.40;1.33;;;24.90;92.20;;;;;;5074550;28;20375;-58
2021/12/24 12:54:48;;;;;;;3.83;1.70;;;24.90;92.20;;;;;;5074580;28;20075;-56
2021/12/24 12:57:33;;;;;;;6.18;2.13;;;24.90;92.20;;;;;;5074600;28;20056;-59
2021/12/24 13:00:17;;;;;;;5.32;1.67;;;24.90;92.20;;;;;;5074351;28;20100;-57
2021/12/24 13:03:06;;;;;;;2.95;1.50;;;24.90;92.30;;;;;;5075145;28;20028;-58
2021/12/24 13:05:42;;;;;;;5.60;1.90;;;24.90;92.30;;;;;;5074479;28;20103;-55
2021/12/24 13:08:21;;;;;;;3.28;1.27;;;24.90;92.30;;;;;;5074070;28;20028;-57
2021/12/24 13:11:16;;;;;;;6.57;1.88;;;24.90;92.30;;;;;;5074388;28;20021;-59
2021/12/24 13:13:54;;;;;;;4.53;2.00;;;24.90;92.30;;;;;;5073040;28;20037;-59
2021/12/24 13:16:52;;;;;;;3.83;1.40;;;24.90;92.30;;;;;;5074475;28;20025;-62
2021/12/24 13:19:43;;;;;;;4.68;1.70;;;24.90;92.40;;;;;;5074073;28;20028;-55
2021/12/24 13:22:28;;;;;;;2.75;1.88;;;24.90;92.40;;;;;;5072574;28;20020;-53
2021/12/24 13:24:58;;;;;;;2.97;1.52;;;24.80;92.30;;;;;;5073807;28;20037;-59
2021/12/24 13:27:28;;;;;;;3.05;1.83;;;24.90;92.30;;;;;;5074078;28;20040;-54
2021/12/24 13:30:21;;;;;;;3.90;1.77;;;24.90;92.30;;;;;;5073667;28;20427;-60
2021/12/24 13:33:00;;;;;;;3.90;1.50;;;24.80;92.30;;;;;;5073922;28;20044;-59
2021/12/24 13:35:47;;;;;;;2.65;1.30;;;24.80;92.30;;;;;;5073431;28;20370;-54
2021/12/24 13:38:26;;;;;;;3.65;1.88;;;24.80;92.30;;;;;;5073782;28;20020;-58
2021/12/24 13:40:55;;;;;;;3.78;1.52;;;24.80;92.30;;;;;;5073885;28;20051;-58
2021/12/24 13:43:24;;;;;;;3.67;1.55;;;24.80;92.30;;;;;;5074013;28;20038;-57
2021/12/24 13:45:54;;;;;;;5.22;1.92;;;24.80;92.30;;;;;;5073493;28;20120;-53
2021/12/24 13:48:40;;;;;;;5.60;1.80;;;24.70;92.30;;;;;;5073696;28;20352;-53
2021/12/24 13:56:44;;;;;;;4.70;1.73;;;24.70;92.30;;;;;;5073872;28;20418;-59
2021/12/24 13:59:12;;;;;;;;;;;24.70;92.40;;;;;;5073595;28;20379;-56
2021/12/24 14:01:41;;;;;;;3.80;2.25;;;24.70;92.30;;;;;;5072261;28;19912;-54
2021/12/24 14:04:09;;;;;;;3.60;1.80;;;24.70;92.30;;;;;;5073076;28;20016;-57
2021/12/24 14:06:42;;;;;;;4.78;2.08;;;24.70;92.30;;;;;;5073352;28;20115;-59
2021/12/24 14:09:15;;;;;;;3.13;1.63;;;24.70;92.30;;;;;;5073491;28;20020;-53
2021/12/24 14:11:43;;;;;;;3.25;1.63;;;24.70;92.40;;;;;;5073128;28;20036;-58
2021/12/24 14:14:16;;;;;;;3.60;1.80;;;24.70;92.40;;;;;;5072914;28;20028;-59
2021/12/24 14:19:35;;;;;;;3.97;1.80;;;24.70;92.30;;;;;;5073098;28;20020;-60
2021/12/24 14:22:13;;;;;;;3.13;1.90;;;24.70;92.30;;;;;;5072880;28;20433;-60
2021/12/24 14:24:57;;;;;;;3.60;1.92;;;24.60;92.30;;;;;;5073025;28;20025;-59
2021/12/24 14:27:29;;;;;;;4.25;1.77;;;24.60;92.40;;;;;;5072964;28;20478;-58
2021/12/24 14:30:04;;;;;;;2.60;1.48;;;24.60;92.30;;;;;;5073012;28;20035;-59
2021/12/24 14:32:36;;;;;;;3.83;1.60;;;24.60;92.30;;;;;;5073061;28;20483;-60
2021/12/24 14:35:19;;;;;;;3.67;1.85;;;24.60;92.30;;;;;;5072795;28;20054;-58
2021/12/24 14:38:07;;;;;;;5.55;1.88;;;24.60;92.40;;;;;;5073031;28;20043;-57
2021/12/24 14:40:37;;;;;;;4.38;1.88;;;24.60;92.40;;;;;;5072935;28;20605;-57
2021/12/24 14:43:13;;;;;;;3.85;1.80;;;24.60;92.30;;;;;;5073569;28;20029;-49
2021/12/24 14:45:45;;;;;;;5.28;1.90;;;24.60;92.40;;;;;;5072893;28;20113;-59
2021/12/24 14:48:25;;;;;;;4.00;1.75;;;24.50;92.30;;;;;;5072586;28;20033;-59
2021/12/24 14:51:04;;;;;;;4.53;2.22;;;24.50;92.40;;;;;;5072712;28;20029;-54
2021/12/24 14:53:36;;;;;;;4.40;1.63;;;24.50;92.40;;;;;;5072551;28;20043;-58
2021/12/24 14:56:19;;;;;;;3.58;2.10;;;24.50;92.40;;;;;;5071487;28;20028;-58
2021/12/24 14:58:47;;;;;;;3.38;1.70;;;24.50;92.40;;;;;;5071373;28;20028;-55